메인 페이지
METAR-TAF:

METAR-TAF

공항 :

요한 바오로 2세 공항

Ponta Delgada, 아조레스, 포르투갈

위도: 37-44N, 경도: 025-42W, 고도: 71m

현재 날씨관측

예보는 37분 전, 22:00시(UTC)에 발표되었습니다.
남동4kt
온도 21°C
습도 83%
기압 1029 hPa
시정 10km 이상
고도 2000ft 상공 구름 조금
고도 3000ft 상공 구름 많음

METAR: LPPD 182200Z 13004KT 9999 FEW020 BKN030 21/18 Q1029

시각: 22:37 (22:37 UTC)

예보

예보는 5 시간 37분 전, 17:00시(UTC)에 발표되었습니다.
예보 대상 시간: 18일 18시부터 19일 18시까지 (UTC)
여러 방향의 바람 5kt
시정 10km 이상
고도 2000ft 상공 구름 조금
고도 3000ft 상공 구름 많음
일시적
18일 18시부터 19일 18시까지 (UTC)
고도 1800ft 상공 구름 보통
전환 중
19일 12시부터 19일 14시까지 (UTC)
8kt

TAF: LPPD 181700Z 1818/1918 VRB05KT 9999 FEW020 BKN030 TEMPO 1818/1918 SCT018 BECMG 1912/1914 26008KT

4,000개 이상의 공항 관측 자료 및 예보 (METAR 및 TAF 보고).

지도상에서 검색 가능한 기상관측소가 노란 점과 빨간 점으로 표시되어 있습니다.

기상관측소 명을 보려면 표시 위로 마우스를 이동하세요.

날씨 관측과 예보를 보려면 클릭하세요.

지도 변경 : 확대하려면 엑스 표시가 있는 녹색 버튼, 축소하려면 빼기 표시가 있는 녹색 버튼, 다음 페이지의 지도를 보려면 녹색 화살표를 클릭하세요.


METAR-TAF: